createdAt,value
2018-03-18T00:00:23.730Z,0.00
2018-03-18T00:01:23.848Z,0.00
2018-03-18T00:02:23.967Z,0.00
2018-03-18T00:03:23.639Z,0.00
2018-03-18T00:06:23.554Z,0.00
2018-03-18T00:07:23.580Z,0.00
2018-03-18T00:08:23.794Z,0.00
2018-03-18T00:09:23.465Z,0.00
2018-03-18T00:10:23.442Z,0.00
2018-03-18T00:11:23.407Z,0.00
2018-03-18T00:12:23.376Z,0.00
2018-03-18T00:13:23.421Z,0.00
2018-03-18T00:14:23.329Z,0.00
2018-03-18T00:16:23.561Z,0.00
2018-03-18T00:17:23.232Z,0.00
2018-03-18T00:18:23.205Z,0.00
2018-03-18T00:19:23.376Z,0.00
2018-03-18T00:21:23.118Z,0.00
2018-03-18T00:22:23.085Z,0.00
2018-03-18T00:23:23.358Z,0.00
2018-03-18T00:24:23.034Z,0.00
2018-03-18T00:25:23.048Z,0.00
2018-03-18T00:26:22.968Z,0.00
2018-03-18T00:27:22.939Z,0.00
2018-03-18T00:28:22.910Z,0.00
2018-03-18T00:29:22.882Z,0.00
2018-03-18T00:30:23.152Z,0.00
2018-03-18T00:31:22.877Z,0.00
2018-03-18T00:32:22.845Z,0.00
2018-03-18T00:33:22.766Z,0.00
2018-03-18T00:34:22.736Z,0.00
2018-03-18T00:36:22.982Z,0.00
2018-03-18T00:37:22.697Z,0.00
2018-03-18T00:38:22.620Z,0.00
2018-03-18T00:39:22.591Z,0.00
2018-03-18T00:40:22.617Z,0.00
2018-03-18T00:41:22.529Z,0.00
2018-03-18T00:42:22.506Z,0.00
2018-03-18T00:43:22.825Z,0.00
2018-03-18T00:44:22.450Z,0.00
2018-03-18T00:46:22.382Z,0.00
2018-03-18T00:47:22.365Z,0.00
2018-03-18T00:48:22.333Z,0.00
2018-03-18T00:49:22.351Z,0.00
2018-03-18T00:50:22.574Z,0.00
2018-03-18T00:52:22.238Z,0.00
2018-03-18T00:53:22.179Z,0.00
2018-03-18T00:54:22.150Z,0.00
2018-03-18T00:55:22.171Z,0.00
2018-03-18T00:56:22.395Z,0.00
2018-03-18T00:57:22.072Z,0.00
2018-03-18T00:59:22.012Z,0.00
2018-03-18T01:00:21.992Z,0.00
2018-03-18T01:01:21.998Z,0.00
2018-03-18T01:02:22.221Z,0.00
2018-03-18T01:03:21.890Z,0.00
2018-03-18T01:04:21.866Z,0.00
2018-03-18T01:05:21.833Z,0.00
2018-03-18T01:06:21.799Z,0.00
2018-03-18T01:07:21.818Z,0.00
2018-03-18T01:08:22.041Z,0.00
2018-03-18T01:09:22.007Z,0.00
2018-03-18T01:10:21.680Z,0.00
2018-03-18T01:11:21.653Z,0.00
2018-03-18T01:12:21.620Z,0.00
2018-03-18T01:13:21.639Z,0.00
2018-03-18T01:14:21.864Z,0.00
2018-03-18T01:15:21.533Z,0.00
2018-03-18T01:16:21.507Z,0.00
2018-03-18T01:17:21.485Z,0.00
2018-03-18T01:18:21.448Z,0.00
2018-03-18T01:19:21.572Z,0.00
2018-03-18T01:20:21.687Z,0.00
2018-03-18T01:21:21.358Z,0.00
2018-03-18T01:22:21.345Z,0.00
2018-03-18T01:23:21.301Z,0.00
2018-03-18T01:24:21.267Z,0.00
2018-03-18T01:25:21.294Z,0.00
2018-03-18T01:26:21.507Z,0.00
2018-03-18T01:27:27.448Z,0.00
2018-03-18T01:29:21.116Z,0.00
2018-03-18T01:30:21.090Z,0.00
2018-03-18T01:31:21.116Z,0.00
2018-03-18T01:32:21.030Z,0.00
2018-03-18T01:33:21.304Z,0.00
2018-03-18T01:34:20.973Z,0.00
2018-03-18T01:35:20.945Z,0.00
2018-03-18T01:36:20.915Z,0.00
2018-03-18T01:37:20.939Z,0.00
2018-03-18T01:38:20.852Z,0.00
2018-03-18T01:39:20.825Z,0.00
2018-03-18T01:40:21.095Z,0.00
2018-03-18T01:41:20.763Z,0.00
2018-03-18T01:42:20.735Z,0.00
2018-03-18T01:44:20.728Z,0.00
2018-03-18T01:45:20.646Z,0.00
2018-03-18T01:46:20.617Z,0.00
2018-03-18T01:47:20.892Z,0.00
2018-03-18T01:48:20.658Z,0.00
2018-03-18T01:49:20.533Z,0.00
2018-03-18T01:50:20.550Z,0.00
2018-03-18T01:51:20.471Z,0.00
2018-03-18T01:52:20.441Z,0.00
2018-03-18T01:53:20.420Z,0.00
2018-03-18T01:55:20.656Z,0.00
2018-03-18T01:56:20.373Z,0.00
2018-03-18T01:57:20.292Z,0.00
2018-03-18T01:58:20.260Z,0.00
2018-03-18T01:59:20.230Z,0.00
2018-03-18T02:00:20.208Z,0.00
2018-03-18T02:01:20.179Z,0.00
2018-03-18T02:02:20.493Z,0.00
2018-03-18T02:03:20.116Z,0.00
2018-03-18T02:04:20.085Z,0.00
2018-03-18T02:05:20.057Z,0.00
2018-03-18T02:06:20.024Z,0.00
2018-03-18T02:07:20.014Z,0.00
2018-03-18T02:09:20.286Z,0.00
2018-03-18T02:10:19.921Z,0.00
2018-03-18T02:11:19.877Z,0.00
2018-03-18T02:12:19.854Z,0.00
2018-03-18T02:13:19.870Z,0.00
2018-03-18T02:14:19.790Z,0.00
2018-03-18T02:15:20.108Z,0.00
2018-03-18T02:16:19.733Z,0.00
2018-03-18T02:17:19.700Z,0.00
2018-03-18T02:18:19.676Z,0.00
2018-03-18T02:19:19.639Z,0.00
2018-03-18T02:20:19.612Z,0.00
2018-03-18T02:21:19.937Z,0.00
2018-03-18T02:22:19.549Z,0.00
2018-03-18T02:23:19.519Z,0.00
2018-03-18T02:24:19.488Z,0.00
2018-03-18T02:25:19.459Z,0.00
2018-03-18T02:26:19.429Z,0.00
2018-03-18T02:27:19.753Z,0.00
2018-03-18T02:29:19.341Z,0.00
2018-03-18T02:30:19.315Z,0.00
2018-03-18T02:31:19.284Z,0.00
2018-03-18T02:32:19.260Z,0.00
2018-03-18T02:33:19.688Z,0.00
2018-03-18T02:34:19.195Z,0.00
2018-03-18T02:35:19.173Z,0.00
2018-03-18T02:37:19.103Z,0.00
2018-03-18T02:38:19.110Z,0.00
2018-03-18T02:39:19.395Z,0.00
2018-03-18T02:40:19.014Z,0.00
2018-03-18T02:41:18.984Z,0.00
2018-03-18T02:43:18.925Z,0.00
2018-03-18T02:44:18.899Z,0.00
2018-03-18T02:45:19.233Z,0.00
2018-03-18T02:46:18.835Z,0.00
2018-03-18T02:47:18.818Z,0.00
2018-03-18T02:48:18.878Z,0.00
2018-03-18T02:49:18.746Z,0.00
2018-03-18T02:50:18.716Z,0.00
2018-03-18T02:51:18.737Z,0.00
2018-03-18T02:52:18.961Z,0.00
2018-03-18T02:53:18.627Z,0.00
2018-03-18T02:54:18.596Z,0.00
2018-03-18T02:55:18.568Z,0.00
2018-03-18T02:56:18.537Z,0.00
2018-03-18T02:58:18.829Z,0.00
2018-03-18T02:59:18.461Z,0.00
2018-03-18T03:00:18.418Z,0.00
2018-03-18T03:01:18.387Z,0.00
2018-03-18T03:02:18.362Z,0.00
2018-03-18T03:03:18.332Z,0.00
2018-03-18T03:04:18.355Z,0.00
2018-03-18T03:05:18.578Z,0.00
2018-03-18T03:06:18.248Z,0.00
2018-03-18T03:07:18.214Z,0.00
2018-03-18T03:08:18.181Z,0.00
2018-03-18T03:09:18.148Z,0.00
2018-03-18T03:11:18.442Z,0.00
2018-03-18T03:12:18.067Z,0.00
2018-03-18T03:13:18.038Z,0.00
2018-03-18T03:14:18.001Z,0.00
2018-03-18T03:15:17.973Z,0.00
2018-03-18T03:16:17.942Z,0.00
2018-03-18T03:18:18.239Z,0.00
2018-03-18T03:20:17.820Z,0.00
2018-03-18T03:21:17.842Z,0.00
2018-03-18T03:22:17.766Z,0.00
2018-03-18T03:23:17.732Z,0.00
2018-03-18T03:24:17.754Z,0.00
2018-03-18T03:25:17.971Z,0.00
2018-03-18T03:26:17.640Z,0.00
2018-03-18T03:27:17.631Z,0.00
2018-03-18T03:28:17.582Z,0.00
2018-03-18T03:29:17.558Z,0.00
2018-03-18T03:30:17.571Z,0.00
2018-03-18T03:31:17.495Z,0.00
2018-03-18T03:32:17.763Z,0.00
2018-03-18T03:33:17.433Z,0.00
2018-03-18T03:34:17.409Z,0.00
2018-03-18T03:35:17.374Z,0.00
2018-03-18T03:36:17.392Z,0.00
2018-03-18T03:37:17.315Z,0.00
2018-03-18T03:38:17.606Z,0.00
2018-03-18T03:39:17.253Z,0.00
2018-03-18T03:40:17.220Z,0.00
2018-03-18T03:41:17.191Z,0.00
2018-03-18T03:42:17.207Z,0.00
2018-03-18T03:43:17.131Z,0.00
2018-03-18T03:44:17.409Z,0.00
2018-03-18T03:45:17.073Z,0.00
2018-03-18T03:46:17.044Z,0.00
2018-03-18T03:48:17.033Z,0.00
2018-03-18T03:49:16.954Z,0.00
2018-03-18T03:50:17.222Z,0.00
2018-03-18T03:51:16.895Z,0.00
2018-03-18T03:52:16.862Z,0.00
2018-03-18T03:53:16.832Z,0.00
2018-03-18T03:54:16.850Z,0.00
2018-03-18T03:55:16.769Z,0.00
2018-03-18T03:56:17.045Z,0.00
2018-03-18T03:57:16.711Z,0.00
2018-03-18T03:58:16.683Z,0.00
2018-03-18T03:59:16.654Z,0.00
2018-03-18T04:00:16.672Z,0.00
2018-03-18T04:01:16.592Z,0.00
2018-03-18T04:02:16.862Z,0.00
2018-03-18T04:03:16.536Z,0.00
2018-03-18T04:04:16.501Z,0.00
2018-03-18T04:05:16.473Z,0.00
2018-03-18T04:06:16.491Z,0.00
2018-03-18T04:07:16.410Z,0.00
2018-03-18T04:08:16.688Z,0.00
2018-03-18T04:09:16.351Z,0.00
2018-03-18T04:10:16.322Z,0.00
2018-03-18T04:11:16.291Z,0.00
2018-03-18T04:12:16.409Z,0.00
2018-03-18T04:13:16.230Z,0.00
2018-03-18T04:14:16.253Z,0.00
2018-03-18T04:16:16.439Z,0.00
2018-03-18T04:17:16.109Z,0.00
2018-03-18T04:18:16.133Z,0.00
2018-03-18T04:19:16.058Z,0.00
2018-03-18T04:20:16.032Z,0.00
2018-03-18T04:21:15.990Z,0.00
2018-03-18T04:22:15.958Z,0.00
2018-03-18T04:23:16.227Z,0.00
2018-03-18T04:24:16.047Z,0.00
2018-03-18T04:25:15.870Z,0.00
2018-03-18T04:26:15.836Z,0.00
2018-03-18T04:27:15.814Z,0.00
2018-03-18T04:28:15.777Z,0.00
2018-03-18T04:29:15.847Z,0.00
2018-03-18T04:30:16.068Z,0.00
2018-03-18T04:31:15.687Z,0.00
2018-03-18T04:32:15.665Z,0.00
2018-03-18T04:33:15.623Z,0.00
2018-03-18T04:34:15.600Z,0.00
2018-03-18T04:35:15.566Z,0.00
2018-03-18T04:36:15.588Z,0.00
2018-03-18T04:37:15.804Z,0.00
2018-03-18T04:38:15.473Z,0.00
2018-03-18T04:39:15.447Z,0.00
2018-03-18T04:40:15.414Z,0.00
2018-03-18T04:41:15.386Z,0.00
2018-03-18T04:42:15.409Z,0.00
2018-03-18T04:43:15.323Z,0.00
2018-03-18T04:44:15.594Z,0.00
2018-03-18T04:45:15.263Z,0.00
2018-03-18T04:46:15.234Z,0.00
2018-03-18T04:47:15.204Z,0.00
2018-03-18T04:48:15.223Z,0.00
2018-03-18T04:49:15.141Z,0.00
2018-03-18T04:50:15.115Z,0.00
2018-03-18T04:51:15.382Z,0.00
2018-03-18T04:52:15.053Z,0.00
2018-03-18T04:53:15.020Z,0.00
2018-03-18T04:54:15.043Z,0.00
2018-03-18T04:55:14.963Z,0.00
2018-03-18T04:56:14.931Z,4.00
2018-03-18T04:57:15.204Z,0.00
2018-03-18T04:58:14.974Z,0.00
2018-03-18T04:59:14.902Z,4.00
2018-03-18T05:00:14.861Z,0.00
2018-03-18T05:01:14.777Z,4.00
2018-03-18T05:02:14.750Z,4.00
2018-03-18T05:03:15.020Z,4.00
2018-03-18T05:04:14.688Z,4.00
2018-03-18T05:05:14.656Z,8.00
2018-03-18T05:06:14.826Z,8.00
2018-03-18T05:07:14.595Z,12.00
2018-03-18T05:08:14.570Z,12.00
2018-03-18T05:09:14.835Z,16.00
2018-03-18T05:10:14.510Z,16.00
2018-03-18T05:11:14.576Z,20.00
2018-03-18T05:12:14.496Z,24.00
2018-03-18T05:13:14.415Z,28.00
2018-03-18T05:14:14.382Z,32.00
2018-03-18T05:15:14.754Z,36.00
2018-03-18T05:16:14.322Z,44.00
2018-03-18T05:17:14.292Z,48.00
2018-03-18T05:18:14.314Z,56.00
2018-03-18T05:19:14.234Z,64.00
2018-03-18T05:20:14.202Z,72.00
2018-03-18T05:21:14.471Z,80.00
2018-03-18T05:22:14.145Z,92.00
2018-03-18T05:23:14.109Z,100.00
2018-03-18T05:24:14.131Z,112.00
2018-03-18T05:25:14.052Z,124.00
2018-03-18T05:26:14.021Z,136.00
2018-03-18T05:27:14.289Z,152.00
2018-03-18T05:28:13.960Z,168.00
2018-03-18T05:29:13.928Z,180.00
2018-03-18T05:30:13.954Z,196.00
2018-03-18T05:31:13.871Z,212.00
2018-03-18T05:32:13.841Z,232.00
2018-03-18T05:33:13.808Z,248.00
2018-03-18T05:34:14.078Z,272.00
2018-03-18T05:35:13.755Z,288.00
2018-03-18T05:36:13.867Z,308.00
2018-03-18T05:37:13.688Z,328.00
2018-03-18T05:38:13.654Z,352.00
2018-03-18T05:39:13.627Z,376.00
2018-03-18T05:40:13.596Z,396.00
2018-03-18T05:41:13.865Z,420.00
2018-03-18T05:42:13.589Z,440.00
2018-03-18T05:43:13.503Z,460.00
2018-03-18T05:44:13.473Z,488.00
2018-03-18T05:45:13.442Z,512.00
2018-03-18T05:46:13.414Z,532.00
2018-03-18T05:47:13.384Z,560.00
2018-03-18T05:48:13.702Z,580.00
2018-03-18T05:49:13.323Z,608.00
2018-03-18T05:50:13.292Z,636.00
2018-03-18T05:51:13.262Z,660.00
2018-03-18T05:52:13.235Z,684.00
2018-03-18T05:53:13.202Z,708.00
2018-03-18T05:54:13.218Z,732.00
2018-03-18T05:55:13.440Z,752.00
2018-03-18T05:57:13.077Z,804.00
2018-03-18T05:58:13.150Z,832.00
2018-03-18T05:59:13.018Z,852.00
2018-03-18T06:00:13.037Z,876.00
2018-03-18T06:01:12.956Z,896.00
2018-03-18T06:02:13.227Z,924.00
2018-03-18T06:03:12.956Z,944.00
2018-03-18T06:04:12.874Z,968.00
2018-03-18T06:05:12.835Z,988.00
2018-03-18T06:06:12.857Z,1012.00
2018-03-18T06:07:12.776Z,1032.00
2018-03-18T06:08:12.745Z,1052.00
2018-03-18T06:09:13.012Z,1072.00
2018-03-18T06:10:12.683Z,1096.00
2018-03-18T06:11:12.659Z,1112.00
2018-03-18T06:12:12.672Z,1132.00
2018-03-18T06:13:12.593Z,1152.00
2018-03-18T06:14:12.565Z,1176.00
2018-03-18T06:15:12.843Z,1196.00
2018-03-18T06:17:12.479Z,1228.00
2018-03-18T06:18:12.495Z,1248.00
2018-03-18T06:19:12.412Z,1268.00
2018-03-18T06:20:12.385Z,1284.00
2018-03-18T06:21:12.651Z,1304.00
2018-03-18T06:22:12.321Z,1320.00
2018-03-18T06:23:12.297Z,1336.00
2018-03-18T06:24:12.322Z,1356.00
2018-03-18T06:25:12.231Z,1368.00
2018-03-18T06:26:12.203Z,1388.00
2018-03-18T06:27:12.470Z,1404.00
2018-03-18T06:28:12.143Z,1424.00
2018-03-18T06:29:12.111Z,1440.00
2018-03-18T06:30:12.131Z,1456.00
2018-03-18T06:31:12.054Z,1472.00
2018-03-18T06:32:12.036Z,1488.00
2018-03-18T06:33:12.291Z,1500.00
2018-03-18T06:34:11.963Z,1516.00
2018-03-18T06:35:11.932Z,1532.00
2018-03-18T06:37:11.874Z,1564.00
2018-03-18T06:38:11.842Z,1576.00
2018-03-18T06:39:12.358Z,1592.00
2018-03-18T06:42:11.777Z,1636.00
2018-03-18T06:43:11.693Z,1652.00
2018-03-18T06:44:11.661Z,1668.00
2018-03-18T06:45:11.934Z,1676.00
2018-03-18T06:46:11.606Z,1692.00
2018-03-18T06:47:11.577Z,1704.00
2018-03-18T06:48:11.602Z,1720.00
2018-03-18T06:49:11.521Z,1732.00
2018-03-18T06:50:11.551Z,1748.00
2018-03-18T06:52:11.725Z,1772.00
2018-03-18T06:53:11.407Z,1784.00
2018-03-18T06:54:11.415Z,1800.00
2018-03-18T06:55:11.337Z,1812.00
2018-03-18T06:56:11.320Z,1816.00
2018-03-18T06:57:11.276Z,1836.00
2018-03-18T06:58:11.248Z,1844.00
2018-03-18T06:59:11.623Z,1860.00
2018-03-18T07:00:11.239Z,1872.00
2018-03-18T07:01:11.158Z,1880.00
2018-03-18T07:02:11.135Z,1900.00
2018-03-18T07:03:11.099Z,1904.00
2018-03-18T07:04:11.069Z,1920.00
2018-03-18T07:05:11.039Z,1932.00
2018-03-18T07:06:11.361Z,1944.00
2018-03-18T07:07:10.980Z,1956.00
2018-03-18T07:08:10.953Z,1968.00
2018-03-18T07:09:10.924Z,1976.00
2018-03-18T07:10:10.893Z,1988.00
2018-03-18T07:11:10.862Z,1992.00
2018-03-18T07:12:10.885Z,2008.00
2018-03-18T07:13:11.108Z,2016.00
2018-03-18T07:14:10.778Z,2028.00
2018-03-18T07:15:10.746Z,2040.00
2018-03-18T07:16:10.718Z,2044.00
2018-03-18T07:17:10.686Z,2060.00
2018-03-18T07:18:10.711Z,2072.00
2018-03-18T07:19:10.632Z,2080.00
2018-03-18T07:20:10.899Z,2092.00
2018-03-18T07:21:10.575Z,2104.00
2018-03-18T07:22:10.539Z,2112.00
2018-03-18T07:23:10.512Z,2120.00
2018-03-18T07:24:10.532Z,2132.00
2018-03-18T07:25:10.451Z,2140.00
2018-03-18T07:26:10.421Z,2152.00
2018-03-18T07:27:10.692Z,2156.00
2018-03-18T07:28:10.366Z,2212.00
2018-03-18T07:29:10.335Z,2288.00
2018-03-18T07:30:10.360Z,2316.00
2018-03-18T07:31:10.283Z,2360.00
2018-03-18T07:32:10.250Z,2396.00
2018-03-18T07:33:10.524Z,2420.00
2018-03-18T07:34:10.192Z,2444.00
2018-03-18T07:35:10.166Z,2452.00
2018-03-18T07:36:10.185Z,2468.00
2018-03-18T07:37:10.109Z,2484.00
2018-03-18T07:39:10.409Z,2520.00
2018-03-18T07:40:10.024Z,2532.00
2018-03-18T07:41:09.993Z,2548.00
2018-03-18T07:42:10.019Z,2572.00
2018-03-18T07:43:09.937Z,2588.00
2018-03-18T07:44:09.910Z,2596.00
2018-03-18T07:45:10.179Z,2624.00
2018-03-18T07:46:09.851Z,2648.00
2018-03-18T07:47:09.826Z,2668.00
2018-03-18T07:48:09.847Z,2692.00
2018-03-18T07:49:09.772Z,2716.00
2018-03-18T07:50:09.741Z,2728.00
2018-03-18T07:51:10.016Z,2748.00
2018-03-18T07:52:09.690Z,2776.00
2018-03-18T07:53:09.667Z,2776.00
2018-03-18T07:54:09.683Z,2788.00
2018-03-18T07:55:09.607Z,2820.00
2018-03-18T07:56:09.578Z,2844.00
2018-03-18T07:57:09.856Z,2844.00
2018-03-18T07:59:09.498Z,2844.00
2018-03-18T08:00:09.527Z,2868.00
2018-03-18T08:01:09.447Z,2872.00
2018-03-18T08:02:09.525Z,2892.00
2018-03-18T08:03:09.698Z,2928.00
2018-03-18T08:04:09.367Z,2960.00
2018-03-18T08:05:09.341Z,2972.00
2018-03-18T08:06:09.589Z,2996.00
2018-03-18T08:07:09.296Z,3020.00
2018-03-18T08:08:09.368Z,3028.00
2018-03-18T08:09:09.546Z,3068.00
2018-03-18T08:10:09.223Z,3076.00
2018-03-18T08:11:09.185Z,3092.00
2018-03-18T08:12:09.562Z,3116.00
2018-03-18T08:13:09.138Z,3132.00
2018-03-18T08:14:09.119Z,3144.00
2018-03-18T08:15:09.084Z,3172.00
2018-03-18T08:16:09.357Z,3192.00
2018-03-18T08:17:09.031Z,3216.00
2018-03-18T08:18:09.056Z,3240.00
2018-03-18T08:19:08.996Z,3272.00
2018-03-18T08:20:08.956Z,3300.00
2018-03-18T08:21:08.938Z,3312.00
2018-03-18T08:22:08.908Z,3344.00
2018-03-18T08:23:09.183Z,3364.00
2018-03-18T08:24:08.912Z,3376.00
2018-03-18T08:25:08.835Z,3412.00
2018-03-18T08:26:08.806Z,3428.00
2018-03-18T08:27:08.782Z,3448.00
2018-03-18T08:28:08.757Z,3468.00
2018-03-18T08:29:08.736Z,3500.00
2018-03-18T08:30:09.115Z,3536.00
2018-03-18T08:31:08.684Z,3576.00
2018-03-18T08:32:08.660Z,3608.00
2018-03-18T08:33:08.634Z,3624.00
2018-03-18T08:34:08.610Z,3656.00
2018-03-18T08:35:08.688Z,3692.00
2018-03-18T08:36:08.613Z,3736.00
2018-03-18T08:37:08.838Z,3760.00
2018-03-18T08:38:08.514Z,3792.00
2018-03-18T08:39:08.491Z,3824.00
2018-03-18T08:40:08.475Z,3856.00
2018-03-18T08:41:08.443Z,3876.00
2018-03-18T08:42:08.466Z,3916.00
2018-03-18T08:43:08.390Z,3948.00
2018-03-18T08:44:08.673Z,3992.00
2018-03-18T08:45:08.351Z,4012.00
2018-03-18T08:46:08.328Z,4048.00
2018-03-18T08:47:08.298Z,4076.00
2018-03-18T08:48:08.324Z,4104.00
2018-03-18T08:49:08.250Z,4144.00
2018-03-18T08:50:08.229Z,4204.00
2018-03-18T08:51:08.504Z,4232.00
2018-03-18T08:52:08.179Z,4272.00
2018-03-18T08:53:08.160Z,4324.00
2018-03-18T08:54:08.183Z,4388.00
2018-03-18T08:55:08.211Z,4428.00
2018-03-18T08:56:08.092Z,4480.00
2018-03-18T08:57:08.362Z,4524.00
2018-03-18T08:58:08.040Z,4556.00
2018-03-18T08:59:08.016Z,4588.00
2018-03-18T09:00:08.047Z,4644.00
2018-03-18T09:01:07.972Z,4668.00
2018-03-18T09:02:07.956Z,4684.00
2018-03-18T09:03:08.227Z,4732.00
2018-03-18T09:04:08.001Z,4776.00
2018-03-18T09:05:07.876Z,4796.00
2018-03-18T09:06:07.903Z,4864.00
2018-03-18T09:07:07.834Z,4928.00
2018-03-18T09:08:07.911Z,4976.00
2018-03-18T09:09:08.119Z,5044.00
2018-03-18T09:10:07.764Z,5096.00
2018-03-18T09:11:07.743Z,5152.00
2018-03-18T09:12:07.893Z,5232.00
2018-03-18T09:13:07.697Z,5280.00
2018-03-18T09:14:07.674Z,5388.00
2018-03-18T09:15:07.953Z,5432.00
2018-03-18T09:16:07.641Z,5548.00
2018-03-18T09:17:07.609Z,5596.00
2018-03-18T09:18:07.643Z,5692.00
2018-03-18T09:19:07.569Z,5804.00
2018-03-18T09:20:07.557Z,5880.00
2018-03-18T09:21:07.827Z,6004.00
2018-03-18T09:22:07.503Z,6112.00
2018-03-18T09:23:07.554Z,6228.00
2018-03-18T09:24:07.509Z,6368.00
2018-03-18T09:25:07.526Z,6436.00
2018-03-18T09:27:07.697Z,6760.00
2018-03-18T09:28:07.387Z,6900.00
2018-03-18T09:29:07.358Z,7080.00
2018-03-18T09:30:07.381Z,7284.00
2018-03-18T09:31:07.316Z,7516.00
2018-03-18T09:32:07.293Z,7768.00
2018-03-18T09:33:07.378Z,8088.00
2018-03-18T09:34:07.552Z,8536.00
2018-03-18T09:35:07.227Z,9152.00
2018-03-18T09:36:07.358Z,10456.00
2018-03-18T09:37:07.185Z,12660.00
2018-03-18T09:38:07.172Z,15360.00
2018-03-18T09:39:07.157Z,18048.00
2018-03-18T09:40:07.136Z,20256.00
2018-03-18T09:41:07.107Z,22880.00
2018-03-18T09:42:07.138Z,27008.00
2018-03-18T09:43:07.078Z,32384.00
2018-03-18T09:44:07.051Z,37664.00
2018-03-18T09:45:07.032Z,41920.00
2018-03-18T09:46:07.025Z,45984.00
2018-03-18T09:47:07.301Z,52960.00
2018-03-18T09:48:07.118Z,57600.00
2018-03-18T09:49:06.948Z,57472.00
2018-03-18T09:50:06.932Z,58720.00
2018-03-18T09:51:06.910Z,58368.00
2018-03-18T09:52:06.919Z,55264.00
2018-03-18T09:53:06.984Z,49088.00
2018-03-18T09:54:07.302Z,45024.00
2018-03-18T09:55:06.838Z,42528.00
2018-03-18T09:56:06.813Z,40704.00
2018-03-18T09:57:06.795Z,39392.00
2018-03-18T09:58:06.772Z,38624.00
2018-03-18T09:59:06.757Z,35904.00
2018-03-18T10:00:06.936Z,34016.00
2018-03-18T10:01:07.016Z,34016.00
2018-03-18T10:02:06.753Z,32832.00
2018-03-18T10:03:06.679Z,31136.00
2018-03-18T10:05:06.645Z,29024.00
2018-03-18T10:06:06.675Z,27808.00
2018-03-18T10:07:06.608Z,26720.00
2018-03-18T10:08:06.906Z,26176.00
2018-03-18T10:09:06.570Z,25696.00
2018-03-18T10:10:06.550Z,25248.00
2018-03-18T10:11:06.533Z,24480.00
2018-03-18T10:12:06.565Z,23520.00
2018-03-18T10:13:06.598Z,22720.00
2018-03-18T10:14:06.529Z,22400.00
2018-03-18T10:15:06.760Z,22912.00
2018-03-18T10:16:06.473Z,23840.00
2018-03-18T10:17:06.426Z,24832.00
2018-03-18T10:18:06.458Z,24800.00
2018-03-18T10:19:06.422Z,23520.00
2018-03-18T10:21:06.655Z,23648.00
2018-03-18T10:22:06.375Z,24480.00
2018-03-18T10:23:06.327Z,24032.00
2018-03-18T10:24:06.454Z,23840.00
2018-03-18T10:25:06.285Z,23616.00
2018-03-18T10:26:06.367Z,23296.00
2018-03-18T10:27:06.259Z,23584.00
2018-03-18T10:28:06.536Z,24480.00
2018-03-18T10:29:06.217Z,24928.00
2018-03-18T10:30:06.257Z,24512.00
2018-03-18T10:32:06.170Z,24800.00
2018-03-18T10:33:06.150Z,27072.00
2018-03-18T10:34:06.438Z,27712.00
2018-03-18T10:35:06.219Z,27296.00
2018-03-18T10:36:06.156Z,26944.00
2018-03-18T10:37:06.088Z,27040.00
2018-03-18T10:38:06.068Z,27040.00
2018-03-18T10:39:06.052Z,28352.00
2018-03-18T10:40:06.402Z,29472.00
2018-03-18T10:41:06.147Z,30144.00
2018-03-18T10:42:06.110Z,31392.00
2018-03-18T10:43:05.987Z,32256.00
2018-03-18T10:44:05.972Z,31648.00
2018-03-18T10:45:05.965Z,30368.00
2018-03-18T10:46:05.943Z,29056.00
2018-03-18T10:47:06.224Z,27232.00
2018-03-18T10:48:05.964Z,25280.00
2018-03-18T10:49:05.917Z,23552.00
2018-03-18T10:50:05.880Z,21824.00
2018-03-18T10:51:05.865Z,20896.00
2018-03-18T10:52:05.850Z,20064.00
2018-03-18T10:53:06.133Z,19296.00
2018-03-18T10:54:05.866Z,18848.00
2018-03-18T10:55:05.815Z,18432.00
2018-03-18T10:56:05.809Z,18272.00
2018-03-18T10:57:05.770Z,18208.00
2018-03-18T10:58:05.770Z,18016.00
2018-03-18T10:59:06.046Z,17888.00
2018-03-18T11:00:05.775Z,17888.00
2018-03-18T11:01:05.714Z,17664.00
2018-03-18T11:02:05.698Z,17632.00
2018-03-18T11:03:05.680Z,17600.00
2018-03-18T11:04:05.674Z,17664.00
2018-03-18T11:05:05.950Z,17664.00
2018-03-18T11:06:05.687Z,17696.00
2018-03-18T11:07:05.621Z,17856.00
2018-03-18T11:08:05.610Z,17888.00
2018-03-18T11:09:05.606Z,18176.00
2018-03-18T11:10:05.675Z,18464.00
2018-03-18T11:11:05.865Z,18976.00
2018-03-18T11:12:05.620Z,20640.00
2018-03-18T11:13:05.534Z,33696.00
2018-03-18T11:14:05.522Z,52480.00
2018-03-18T11:15:05.611Z,54144.00
2018-03-18T11:16:05.546Z,48704.00
2018-03-18T11:17:05.878Z,47648.00
2018-03-18T11:18:05.514Z,50208.00
2018-03-18T11:19:05.454Z,51328.00
2018-03-18T11:20:05.445Z,47616.00
2018-03-18T11:21:05.427Z,49504.00
2018-03-18T11:22:05.416Z,54048.00
2018-03-18T11:23:05.403Z,54688.00
2018-03-18T11:24:05.743Z,53216.00
2018-03-18T11:25:05.384Z,51424.00
2018-03-18T11:26:05.352Z,54432.00
2018-03-18T11:27:05.351Z,56480.00
2018-03-18T11:29:05.314Z,54080.00
2018-03-18T11:30:05.688Z,58592.00
2018-03-18T11:31:05.291Z,57536.00
2018-03-18T11:32:05.272Z,52864.00
2018-03-18T11:33:05.263Z,45472.00
2018-03-18T11:34:05.245Z,48000.00
2018-03-18T11:35:05.231Z,55104.00
2018-03-18T11:36:05.573Z,56928.00
2018-03-18T11:37:05.308Z,56000.00
2018-03-18T11:39:05.186Z,54688.00
2018-03-18T11:40:05.165Z,55392.00
2018-03-18T11:41:05.151Z,55456.00
2018-03-18T11:42:05.497Z,52896.00
2018-03-18T11:43:05.125Z,55840.00
2018-03-18T11:44:05.125Z,59264.00
2018-03-18T11:45:05.102Z,58752.00
2018-03-18T11:46:05.084Z,58080.00
2018-03-18T11:47:05.073Z,59872.00
2018-03-18T11:48:05.415Z,61696.00
2018-03-18T11:49:05.048Z,60000.00
2018-03-18T11:50:05.034Z,56704.00
2018-03-18T11:51:05.177Z,57056.00
2018-03-18T11:52:05.009Z,57440.00
2018-03-18T11:53:04.996Z,55744.00
2018-03-18T11:54:05.333Z,57952.00
2018-03-18T11:55:04.970Z,56928.00
2018-03-18T11:57:04.951Z,54144.00
2018-03-18T11:59:04.921Z,56576.00
2018-03-18T12:00:05.259Z,54784.00
2018-03-18T12:01:04.896Z,55808.00
2018-03-18T12:02:04.883Z,58272.00
2018-03-18T12:03:04.869Z,57472.00
2018-03-18T12:04:04.860Z,56288.00
2018-03-18T12:06:05.182Z,57088.00
2018-03-18T12:07:04.818Z,58176.00
2018-03-18T12:08:04.811Z,58752.00
2018-03-18T12:09:04.811Z,60192.00
2018-03-18T12:10:04.779Z,58528.00
2018-03-18T12:11:04.773Z,57056.00
2018-03-18T12:12:05.230Z,58112.00
2018-03-18T12:13:04.799Z,57760.00
2018-03-18T12:14:04.731Z,55840.00
2018-03-18T12:15:04.774Z,52000.00
2018-03-18T12:16:04.710Z,50816.00
2018-03-18T12:17:04.702Z,51840.00
2018-03-18T12:18:05.039Z,49344.00
2018-03-18T12:19:04.680Z,51360.00
2018-03-18T12:20:04.659Z,54368.00
2018-03-18T12:21:04.652Z,55680.00
2018-03-18T12:22:04.631Z,55360.00
2018-03-18T12:23:04.635Z,56384.00
2018-03-18T12:24:04.959Z,55968.00
2018-03-18T12:25:04.595Z,55776.00
2018-03-18T12:26:04.584Z,54144.00
2018-03-18T12:27:04.580Z,54400.00
2018-03-18T12:28:04.664Z,55936.00
2018-03-18T12:29:04.547Z,55584.00
2018-03-18T12:30:04.890Z,55488.00
2018-03-18T12:31:04.518Z,56992.00
2018-03-18T12:32:04.509Z,57376.00
2018-03-18T12:33:04.498Z,56640.00
2018-03-18T12:34:04.484Z,52704.00
2018-03-18T12:35:04.475Z,49536.00
2018-03-18T12:36:04.527Z,47200.00
2018-03-18T12:37:04.750Z,43424.00
2018-03-18T12:38:04.441Z,40192.00
2018-03-18T12:39:04.457Z,36832.00
2018-03-18T12:40:04.409Z,33824.00
2018-03-18T12:41:04.400Z,31200.00
2018-03-18T12:42:04.441Z,27168.00
2018-03-18T12:43:04.671Z,23936.00
2018-03-18T12:44:04.364Z,21216.00
2018-03-18T12:46:04.342Z,18656.00
2018-03-18T12:47:04.338Z,17728.00
2018-03-18T12:48:04.372Z,17280.00
2018-03-18T12:49:04.597Z,17024.00
2018-03-18T12:50:04.286Z,16864.00
2018-03-18T12:51:04.275Z,16736.00
2018-03-18T12:52:04.275Z,16640.00
2018-03-18T12:53:04.246Z,16320.00
2018-03-18T12:54:04.285Z,16256.00
2018-03-18T12:55:04.553Z,16128.00
2018-03-18T12:56:04.214Z,15776.00
2018-03-18T12:57:04.206Z,15488.00
2018-03-18T12:58:04.192Z,15296.00
2018-03-18T13:00:04.214Z,14812.00
2018-03-18T13:01:04.451Z,14740.00
2018-03-18T13:02:04.139Z,14624.00
2018-03-18T13:03:04.229Z,14552.00
2018-03-18T13:04:04.117Z,14580.00
2018-03-18T13:05:04.102Z,14484.00
2018-03-18T13:06:04.142Z,14344.00
2018-03-18T13:07:04.378Z,14348.00